sensor_id;sensor_type;location;lat;lon;timestamp;P1;durP1;ratioP1;P2;durP2;ratioP2
23402;SDS011;11874;48.228;11.684;2023-11-18T00:01:39;5.05;;;3.50;;
23402;SDS011;11874;48.228;11.684;2023-11-18T00:04:08;5.97;;;3.65;;
23402;SDS011;11874;48.228;11.684;2023-11-18T00:06:42;3.55;;;3.10;;
23402;SDS011;11874;48.228;11.684;2023-11-18T00:09:11;4.43;;;3.55;;
23402;SDS011;11874;48.228;11.684;2023-11-18T00:11:41;4.55;;;3.78;;
23402;SDS011;11874;48.228;11.684;2023-11-18T00:14:11;3.72;;;2.90;;
23402;SDS011;11874;48.228;11.684;2023-11-18T00:16:40;4.35;;;3.25;;
23402;SDS011;11874;48.228;11.684;2023-11-18T00:19:08;5.00;;;3.63;;
23402;SDS011;11874;48.228;11.684;2023-11-18T00:21:36;5.90;;;3.65;;
23402;SDS011;11874;48.228;11.684;2023-11-18T00:24:04;6.70;;;3.70;;
23402;SDS011;11874;48.228;11.684;2023-11-18T00:26:34;5.07;;;3.92;;
23402;SDS011;11874;48.228;11.684;2023-11-18T00:29:02;4.30;;;3.47;;
23402;SDS011;11874;48.228;11.684;2023-11-18T00:31:36;4.25;;;3.45;;
23402;SDS011;11874;48.228;11.684;2023-11-18T00:34:04;6.72;;;4.07;;
23402;SDS011;11874;48.228;11.684;2023-11-18T00:36:32;4.57;;;3.50;;
23402;SDS011;11874;48.228;11.684;2023-11-18T00:39:01;4.70;;;4.10;;
23402;SDS011;11874;48.228;11.684;2023-11-18T00:41:30;5.45;;;3.60;;
23402;SDS011;11874;48.228;11.684;2023-11-18T00:43:58;5.25;;;3.90;;
23402;SDS011;11874;48.228;11.684;2023-11-18T00:46:27;7.07;;;4.53;;
23402;SDS011;11874;48.228;11.684;2023-11-18T00:48:57;5.88;;;3.60;;
23402;SDS011;11874;48.228;11.684;2023-11-18T00:51:25;5.55;;;4.10;;
23402;SDS011;11874;48.228;11.684;2023-11-18T00:53:53;5.55;;;4.38;;
23402;SDS011;11874;48.228;11.684;2023-11-18T00:56:23;6.93;;;4.03;;
23402;SDS011;11874;48.228;11.684;2023-11-18T00:58:52;4.50;;;3.60;;
23402;SDS011;11874;48.228;11.684;2023-11-18T01:01:21;5.10;;;3.97;;
23402;SDS011;11874;48.228;11.684;2023-11-18T01:03:50;6.82;;;3.80;;
23402;SDS011;11874;48.228;11.684;2023-11-18T01:06:21;4.43;;;3.67;;
23402;SDS011;11874;48.228;11.684;2023-11-18T01:08:49;4.93;;;3.63;;
23402;SDS011;11874;48.228;11.684;2023-11-18T01:11:17;3.70;;;3.13;;
23402;SDS011;11874;48.228;11.684;2023-11-18T01:13:46;6.43;;;4.03;;
23402;SDS011;11874;48.228;11.684;2023-11-18T01:16:17;4.68;;;3.45;;
23402;SDS011;11874;48.228;11.684;2023-11-18T01:18:47;5.35;;;3.70;;
23402;SDS011;11874;48.228;11.684;2023-11-18T01:21:15;3.70;;;3.10;;
23402;SDS011;11874;48.228;11.684;2023-11-18T01:23:45;5.15;;;3.25;;
23402;SDS011;11874;48.228;11.684;2023-11-18T01:26:15;5.05;;;2.85;;
23402;SDS011;11874;48.228;11.684;2023-11-18T01:28:43;4.97;;;3.40;;
23402;SDS011;11874;48.228;11.684;2023-11-18T01:31:12;4.05;;;3.35;;
23402;SDS011;11874;48.228;11.684;2023-11-18T01:33:41;4.35;;;3.22;;
23402;SDS011;11874;48.228;11.684;2023-11-18T01:36:11;5.65;;;3.10;;
23402;SDS011;11874;48.228;11.684;2023-11-18T01:38:40;3.50;;;3.05;;
23402;SDS011;11874;48.228;11.684;2023-11-18T01:41:09;4.38;;;3.50;;
23402;SDS011;11874;48.228;11.684;2023-11-18T01:43:37;3.75;;;2.90;;
23402;SDS011;11874;48.228;11.684;2023-11-18T01:46:07;5.25;;;3.42;;
23402;SDS011;11874;48.228;11.684;2023-11-18T01:48:39;3.85;;;3.05;;
23402;SDS011;11874;48.228;11.684;2023-11-18T01:51:09;3.78;;;3.03;;
23402;SDS011;11874;48.228;11.684;2023-11-18T01:53:38;3.80;;;3.00;;
23402;SDS011;11874;48.228;11.684;2023-11-18T01:56:11;3.50;;;2.90;;
23402;SDS011;11874;48.228;11.684;2023-11-18T01:58:41;2.90;;;2.58;;
23402;SDS011;11874;48.228;11.684;2023-11-18T02:01:10;3.35;;;3.03;;
23402;SDS011;11874;48.228;11.684;2023-11-18T02:03:42;3.25;;;2.75;;
23402;SDS011;11874;48.228;11.684;2023-11-18T02:06:10;3.60;;;3.10;;
23402;SDS011;11874;48.228;11.684;2023-11-18T02:08:39;3.53;;;2.92;;
23402;SDS011;11874;48.228;11.684;2023-11-18T02:11:13;3.92;;;2.70;;
23402;SDS011;11874;48.228;11.684;2023-11-18T02:13:48;5.38;;;2.90;;
23402;SDS011;11874;48.228;11.684;2023-11-18T02:16:19;3.80;;;3.05;;
23402;SDS011;11874;48.228;11.684;2023-11-18T02:18:49;4.50;;;3.00;;
23402;SDS011;11874;48.228;11.684;2023-11-18T02:21:20;2.70;;;2.50;;
23402;SDS011;11874;48.228;11.684;2023-11-18T02:23:49;3.45;;;2.88;;
23402;SDS011;11874;48.228;11.684;2023-11-18T02:26:23;3.22;;;2.35;;
23402;SDS011;11874;48.228;11.684;2023-11-18T02:28:53;3.42;;;2.67;;
23402;SDS011;11874;48.228;11.684;2023-11-18T02:31:22;3.20;;;2.55;;
23402;SDS011;11874;48.228;11.684;2023-11-18T02:33:59;3.63;;;2.70;;
23402;SDS011;11874;48.228;11.684;2023-11-18T02:36:31;3.33;;;2.83;;
23402;SDS011;11874;48.228;11.684;2023-11-18T02:42:21;3.45;;;2.47;;
23402;SDS011;11874;48.228;11.684;2023-11-18T02:44:50;3.28;;;2.80;;
23402;SDS011;11874;48.228;11.684;2023-11-18T02:47:26;3.80;;;3.10;;
23402;SDS011;11874;48.228;11.684;2023-11-18T02:49:54;3.92;;;3.00;;
23402;SDS011;11874;48.228;11.684;2023-11-18T02:52:32;3.22;;;2.63;;
23402;SDS011;11874;48.228;11.684;2023-11-18T02:55:01;3.15;;;2.67;;
23402;SDS011;11874;48.228;11.684;2023-11-18T02:57:30;3.65;;;2.67;;
23402;SDS011;11874;48.228;11.684;2023-11-18T02:59:59;2.88;;;2.38;;
23402;SDS011;11874;48.228;11.684;2023-11-18T03:02:30;3.22;;;2.92;;
23402;SDS011;11874;48.228;11.684;2023-11-18T03:04:59;2.60;;;2.40;;
23402;SDS011;11874;48.228;11.684;2023-11-18T03:07:28;3.25;;;2.45;;
23402;SDS011;11874;48.228;11.684;2023-11-18T03:09:56;2.97;;;2.50;;
23402;SDS011;11874;48.228;11.684;2023-11-18T03:12:24;3.10;;;2.38;;
23402;SDS011;11874;48.228;11.684;2023-11-18T03:14:56;3.83;;;2.80;;
23402;SDS011;11874;48.228;11.684;2023-11-18T03:17:24;2.90;;;2.45;;
23402;SDS011;11874;48.228;11.684;2023-11-18T03:19:52;2.78;;;2.47;;
23402;SDS011;11874;48.228;11.684;2023-11-18T03:22:21;3.30;;;3.00;;
23402;SDS011;11874;48.228;11.684;2023-11-18T03:24:50;3.42;;;2.75;;
23402;SDS011;11874;48.228;11.684;2023-11-18T03:27:20;2.90;;;2.40;;
23402;SDS011;11874;48.228;11.684;2023-11-18T03:29:49;3.25;;;2.45;;
23402;SDS011;11874;48.228;11.684;2023-11-18T03:32:21;3.58;;;2.38;;
23402;SDS011;11874;48.228;11.684;2023-11-18T03:34:50;4.03;;;2.60;;
23402;SDS011;11874;48.228;11.684;2023-11-18T03:37:18;3.55;;;2.78;;
23402;SDS011;11874;48.228;11.684;2023-11-18T03:39:49;3.00;;;2.55;;
23402;SDS011;11874;48.228;11.684;2023-11-18T03:42:18;3.45;;;2.58;;
23402;SDS011;11874;48.228;11.684;2023-11-18T03:44:46;3.58;;;2.70;;
23402;SDS011;11874;48.228;11.684;2023-11-18T03:47:15;3.60;;;2.65;;
23402;SDS011;11874;48.228;11.684;2023-11-18T03:49:44;3.67;;;3.20;;
23402;SDS011;11874;48.228;11.684;2023-11-18T03:52:13;3.03;;;2.72;;
23402;SDS011;11874;48.228;11.684;2023-11-18T03:54:41;3.17;;;2.88;;
23402;SDS011;11874;48.228;11.684;2023-11-18T03:57:09;4.60;;;2.90;;
23402;SDS011;11874;48.228;11.684;2023-11-18T03:59:39;3.00;;;2.70;;
23402;SDS011;11874;48.228;11.684;2023-11-18T04:02:08;3.40;;;2.92;;
23402;SDS011;11874;48.228;11.684;2023-11-18T04:04:38;3.15;;;2.55;;
23402;SDS011;11874;48.228;11.684;2023-11-18T04:07:07;3.03;;;2.60;;
23402;SDS011;11874;48.228;11.684;2023-11-18T04:09:35;3.20;;;2.80;;
23402;SDS011;11874;48.228;11.684;2023-11-18T04:12:03;3.75;;;3.15;;
23402;SDS011;11874;48.228;11.684;2023-11-18T04:14:32;3.42;;;2.65;;
23402;SDS011;11874;48.228;11.684;2023-11-18T04:17:02;3.10;;;2.60;;
23402;SDS011;11874;48.228;11.684;2023-11-18T04:19:30;5.45;;;3.13;;
23402;SDS011;11874;48.228;11.684;2023-11-18T04:21:58;3.95;;;3.03;;
23402;SDS011;11874;48.228;11.684;2023-11-18T04:24:28;3.47;;;2.70;;
23402;SDS011;11874;48.228;11.684;2023-11-18T04:26:56;3.67;;;3.08;;
23402;SDS011;11874;48.228;11.684;2023-11-18T04:29:24;3.58;;;2.80;;
23402;SDS011;11874;48.228;11.684;2023-11-18T04:31:54;3.70;;;2.80;;
23402;SDS011;11874;48.228;11.684;2023-11-18T04:34:22;3.10;;;2.80;;
23402;SDS011;11874;48.228;11.684;2023-11-18T04:36:51;2.85;;;2.40;;
23402;SDS011;11874;48.228;11.684;2023-11-18T04:39:19;5.55;;;3.50;;
23402;SDS011;11874;48.228;11.684;2023-11-18T04:41:50;4.43;;;3.60;;
23402;SDS011;11874;48.228;11.684;2023-11-18T04:44:18;4.43;;;3.53;;
23402;SDS011;11874;48.228;11.684;2023-11-18T04:46:47;4.43;;;3.40;;
23402;SDS011;11874;48.228;11.684;2023-11-18T04:49:15;4.47;;;3.20;;
23402;SDS011;11874;48.228;11.684;2023-11-18T04:51:44;4.85;;;3.28;;
23402;SDS011;11874;48.228;11.684;2023-11-18T04:54:12;4.20;;;3.45;;
23402;SDS011;11874;48.228;11.684;2023-11-18T04:56:41;4.00;;;3.22;;
23402;SDS011;11874;48.228;11.684;2023-11-18T04:59:12;4.40;;;3.25;;
23402;SDS011;11874;48.228;11.684;2023-11-18T05:01:41;4.60;;;3.53;;
23402;SDS011;11874;48.228;11.684;2023-11-18T05:04:09;4.85;;;3.42;;
23402;SDS011;11874;48.228;11.684;2023-11-18T05:06:37;5.00;;;3.88;;
23402;SDS011;11874;48.228;11.684;2023-11-18T05:09:06;4.45;;;3.55;;
23402;SDS011;11874;48.228;11.684;2023-11-18T05:11:34;6.18;;;3.83;;
23402;SDS011;11874;48.228;11.684;2023-11-18T05:14:03;5.45;;;3.75;;
23402;SDS011;11874;48.228;11.684;2023-11-18T05:16:32;4.88;;;3.70;;
23402;SDS011;11874;48.228;11.684;2023-11-18T05:19:01;6.53;;;4.28;;
23402;SDS011;11874;48.228;11.684;2023-11-18T05:21:29;5.85;;;4.05;;
23402;SDS011;11874;48.228;11.684;2023-11-18T05:23:58;6.10;;;4.65;;
23402;SDS011;11874;48.228;11.684;2023-11-18T05:26:26;7.13;;;4.20;;
23402;SDS011;11874;48.228;11.684;2023-11-18T05:28:55;4.65;;;3.45;;
23402;SDS011;11874;48.228;11.684;2023-11-18T05:31:23;5.78;;;4.05;;
23402;SDS011;11874;48.228;11.684;2023-11-18T05:33:56;7.90;;;3.83;;
23402;SDS011;11874;48.228;11.684;2023-11-18T05:36:24;5.38;;;3.72;;
23402;SDS011;11874;48.228;11.684;2023-11-18T05:38:56;4.28;;;3.40;;
23402;SDS011;11874;48.228;11.684;2023-11-18T05:41:24;4.28;;;3.47;;
23402;SDS011;11874;48.228;11.684;2023-11-18T05:46:25;5.13;;;3.72;;
23402;SDS011;11874;48.228;11.684;2023-11-18T05:49:01;4.35;;;3.38;;
23402;SDS011;11874;48.228;11.684;2023-11-18T05:51:33;4.35;;;3.35;;
23402;SDS011;11874;48.228;11.684;2023-11-18T05:54:02;5.22;;;3.72;;
23402;SDS011;11874;48.228;11.684;2023-11-18T05:56:31;5.03;;;3.30;;
23402;SDS011;11874;48.228;11.684;2023-11-18T05:58:59;5.30;;;3.85;;
23402;SDS011;11874;48.228;11.684;2023-11-18T06:01:29;4.22;;;3.13;;
23402;SDS011;11874;48.228;11.684;2023-11-18T06:03:59;4.95;;;3.45;;
23402;SDS011;11874;48.228;11.684;2023-11-18T06:06:27;4.15;;;3.15;;
23402;SDS011;11874;48.228;11.684;2023-11-18T06:08:58;4.90;;;3.42;;
23402;SDS011;11874;48.228;11.684;2023-11-18T06:11:31;5.22;;;3.10;;
23402;SDS011;11874;48.228;11.684;2023-11-18T06:13:59;3.78;;;3.17;;
23402;SDS011;11874;48.228;11.684;2023-11-18T06:16:28;4.40;;;3.50;;
23402;SDS011;11874;48.228;11.684;2023-11-18T06:18:56;4.75;;;3.70;;
23402;SDS011;11874;48.228;11.684;2023-11-18T06:21:27;3.65;;;2.70;;
23402;SDS011;11874;48.228;11.684;2023-11-18T06:23:57;4.50;;;3.25;;
23402;SDS011;11874;48.228;11.684;2023-11-18T06:26:26;3.83;;;2.80;;
23402;SDS011;11874;48.228;11.684;2023-11-18T06:28:55;6.50;;;3.40;;
23402;SDS011;11874;48.228;11.684;2023-11-18T06:31:24;3.58;;;2.90;;
23402;SDS011;11874;48.228;11.684;2023-11-18T06:33:52;3.88;;;3.03;;
23402;SDS011;11874;48.228;11.684;2023-11-18T06:36:20;3.50;;;2.97;;
23402;SDS011;11874;48.228;11.684;2023-11-18T06:38:51;3.58;;;3.17;;
23402;SDS011;11874;48.228;11.684;2023-11-18T06:41:20;4.65;;;3.58;;
23402;SDS011;11874;48.228;11.684;2023-11-18T06:44:00;3.97;;;3.20;;
23402;SDS011;11874;48.228;11.684;2023-11-18T06:46:36;4.55;;;3.30;;
23402;SDS011;11874;48.228;11.684;2023-11-18T06:49:07;4.20;;;2.92;;
23402;SDS011;11874;48.228;11.684;2023-11-18T06:51:37;4.63;;;3.15;;
23402;SDS011;11874;48.228;11.684;2023-11-18T06:54:07;4.68;;;3.33;;
23402;SDS011;11874;48.228;11.684;2023-11-18T06:56:37;4.97;;;3.40;;
23402;SDS011;11874;48.228;11.684;2023-11-18T06:59:10;3.80;;;3.00;;
23402;SDS011;11874;48.228;11.684;2023-11-18T07:01:40;4.43;;;3.05;;
23402;SDS011;11874;48.228;11.684;2023-11-18T07:04:12;4.50;;;3.00;;
23402;SDS011;11874;48.228;11.684;2023-11-18T07:06:42;5.72;;;3.53;;
23402;SDS011;11874;48.228;11.684;2023-11-18T07:09:12;5.88;;;3.97;;
23402;SDS011;11874;48.228;11.684;2023-11-18T07:11:44;4.10;;;3.17;;
23402;SDS011;11874;48.228;11.684;2023-11-18T07:14:15;4.68;;;3.67;;
23402;SDS011;11874;48.228;11.684;2023-11-18T07:16:44;3.78;;;3.03;;
23402;SDS011;11874;48.228;11.684;2023-11-18T07:19:12;5.15;;;3.45;;
23402;SDS011;11874;48.228;11.684;2023-11-18T07:21:47;6.35;;;3.53;;
23402;SDS011;11874;48.228;11.684;2023-11-18T07:24:18;6.38;;;3.38;;
23402;SDS011;11874;48.228;11.684;2023-11-18T07:26:48;5.20;;;3.33;;
23402;SDS011;11874;48.228;11.684;2023-11-18T07:29:17;3.75;;;2.95;;
23402;SDS011;11874;48.228;11.684;2023-11-18T07:31:45;4.00;;;3.00;;
23402;SDS011;11874;48.228;11.684;2023-11-18T07:34:14;7.57;;;3.15;;
23402;SDS011;11874;48.228;11.684;2023-11-18T07:36:42;4.82;;;3.00;;
23402;SDS011;11874;48.228;11.684;2023-11-18T07:39:12;5.50;;;2.97;;
23402;SDS011;11874;48.228;11.684;2023-11-18T07:41:47;5.38;;;2.95;;
23402;SDS011;11874;48.228;11.684;2023-11-18T07:44:15;4.45;;;2.95;;
23402;SDS011;11874;48.228;11.684;2023-11-18T07:46:44;5.95;;;3.08;;
23402;SDS011;11874;48.228;11.684;2023-11-18T07:49:12;4.78;;;3.08;;
23402;SDS011;11874;48.228;11.684;2023-11-18T07:51:43;4.78;;;3.40;;
23402;SDS011;11874;48.228;11.684;2023-11-18T07:54:11;4.40;;;3.13;;
23402;SDS011;11874;48.228;11.684;2023-11-18T07:56:41;5.30;;;2.85;;
23402;SDS011;11874;48.228;11.684;2023-11-18T07:59:14;3.85;;;2.97;;
23402;SDS011;11874;48.228;11.684;2023-11-18T08:01:45;3.83;;;2.67;;
23402;SDS011;11874;48.228;11.684;2023-11-18T08:04:15;3.28;;;2.50;;
23402;SDS011;11874;48.228;11.684;2023-11-18T08:06:45;4.22;;;3.08;;
23402;SDS011;11874;48.228;11.684;2023-11-18T08:09:15;4.13;;;2.95;;
23402;SDS011;11874;48.228;11.684;2023-11-18T08:11:49;4.15;;;3.00;;
23402;SDS011;11874;48.228;11.684;2023-11-18T08:14:18;4.07;;;2.70;;
23402;SDS011;11874;48.228;11.684;2023-11-18T08:16:47;4.05;;;2.47;;
23402;SDS011;11874;48.228;11.684;2023-11-18T08:19:17;4.30;;;2.83;;
23402;SDS011;11874;48.228;11.684;2023-11-18T08:21:45;4.75;;;3.00;;
23402;SDS011;11874;48.228;11.684;2023-11-18T08:24:13;4.88;;;3.03;;
23402;SDS011;11874;48.228;11.684;2023-11-18T08:26:45;4.47;;;2.78;;
23402;SDS011;11874;48.228;11.684;2023-11-18T08:29:14;5.28;;;3.40;;
23402;SDS011;11874;48.228;11.684;2023-11-18T08:31:44;4.55;;;2.97;;
23402;SDS011;11874;48.228;11.684;2023-11-18T08:34:13;3.72;;;2.53;;
23402;SDS011;11874;48.228;11.684;2023-11-18T08:36:41;5.60;;;3.08;;
23402;SDS011;11874;48.228;11.684;2023-11-18T08:39:10;3.72;;;2.72;;
23402;SDS011;11874;48.228;11.684;2023-11-18T08:41:40;5.80;;;3.85;;
23402;SDS011;11874;48.228;11.684;2023-11-18T08:44:10;3.95;;;2.75;;
23402;SDS011;11874;48.228;11.684;2023-11-18T08:46:51;4.57;;;3.17;;
23402;SDS011;11874;48.228;11.684;2023-11-18T08:49:20;4.82;;;2.72;;
23402;SDS011;11874;48.228;11.684;2023-11-18T08:51:48;4.00;;;2.90;;
23402;SDS011;11874;48.228;11.684;2023-11-18T08:54:22;4.00;;;3.03;;
23402;SDS011;11874;48.228;11.684;2023-11-18T08:56:52;4.65;;;3.17;;
23402;SDS011;11874;48.228;11.684;2023-11-18T08:59:21;5.75;;;3.00;;
23402;SDS011;11874;48.228;11.684;2023-11-18T09:01:54;4.23;;;2.97;;
23402;SDS011;11874;48.228;11.684;2023-11-18T09:04:22;3.22;;;2.47;;
23402;SDS011;11874;48.228;11.684;2023-11-18T09:06:51;3.63;;;2.75;;
23402;SDS011;11874;48.228;11.684;2023-11-18T09:09:20;3.38;;;2.50;;
23402;SDS011;11874;48.228;11.684;2023-11-18T09:11:53;2.72;;;2.10;;
23402;SDS011;11874;48.228;11.684;2023-11-18T09:14:24;3.25;;;2.58;;
23402;SDS011;11874;48.228;11.684;2023-11-18T09:16:54;2.58;;;2.10;;
23402;SDS011;11874;48.228;11.684;2023-11-18T09:19:25;3.33;;;2.40;;
23402;SDS011;11874;48.228;11.684;2023-11-18T09:21:52;4.72;;;2.30;;
23402;SDS011;11874;48.228;11.684;2023-11-18T09:24:21;3.55;;;2.70;;
23402;SDS011;11874;48.228;11.684;2023-11-18T09:26:51;2.42;;;2.10;;
23402;SDS011;11874;48.228;11.684;2023-11-18T09:29:21;4.10;;;2.50;;
23402;SDS011;11874;48.228;11.684;2023-11-18T09:31:51;3.00;;;2.22;;
23402;SDS011;11874;48.228;11.684;2023-11-18T09:34:22;3.00;;;2.20;;
23402;SDS011;11874;48.228;11.684;2023-11-18T09:36:59;3.58;;;2.67;;
23402;SDS011;11874;48.228;11.684;2023-11-18T09:39:27;3.90;;;2.28;;
23402;SDS011;11874;48.228;11.684;2023-11-18T09:42:05;2.78;;;2.28;;
23402;SDS011;11874;48.228;11.684;2023-11-18T09:44:36;3.00;;;2.00;;
23402;SDS011;11874;48.228;11.684;2023-11-18T09:47:07;3.13;;;2.22;;
23402;SDS011;11874;48.228;11.684;2023-11-18T09:52:25;2.67;;;2.20;;
23402;SDS011;11874;48.228;11.684;2023-11-18T09:55:00;2.30;;;1.85;;
23402;SDS011;11874;48.228;11.684;2023-11-18T09:57:31;2.95;;;1.50;;
23402;SDS011;11874;48.228;11.684;2023-11-18T10:02:48;3.20;;;2.20;;
23402;SDS011;11874;48.228;11.684;2023-11-18T10:05:20;2.53;;;1.70;;
23402;SDS011;11874;48.228;11.684;2023-11-18T10:07:50;2.83;;;1.98;;
23402;SDS011;11874;48.228;11.684;2023-11-18T10:10:18;3.38;;;2.30;;
23402;SDS011;11874;48.228;11.684;2023-11-18T10:12:50;3.13;;;1.95;;
23402;SDS011;11874;48.228;11.684;2023-11-18T10:15:24;2.22;;;1.95;;
23402;SDS011;11874;48.228;11.684;2023-11-18T10:17:53;2.42;;;2.00;;
23402;SDS011;11874;48.228;11.684;2023-11-18T10:23:13;4.10;;;2.17;;
23402;SDS011;11874;48.228;11.684;2023-11-18T10:25:46;2.20;;;1.90;;
23402;SDS011;11874;48.228;11.684;2023-11-18T10:28:22;3.65;;;1.75;;
23402;SDS011;11874;48.228;11.684;2023-11-18T10:30:54;1.95;;;1.77;;
23402;SDS011;11874;48.228;11.684;2023-11-18T10:33:30;2.10;;;1.90;;
23402;SDS011;11874;48.228;11.684;2023-11-18T10:36:00;1.75;;;1.48;;
23402;SDS011;11874;48.228;11.684;2023-11-18T10:38:30;3.63;;;1.77;;
23402;SDS011;11874;48.228;11.684;2023-11-18T10:41:03;2.05;;;1.65;;
23402;SDS011;11874;48.228;11.684;2023-11-18T10:43:32;2.42;;;1.88;;
23402;SDS011;11874;48.228;11.684;2023-11-18T10:46:06;2.70;;;1.58;;
23402;SDS011;11874;48.228;11.684;2023-11-18T10:48:42;2.03;;;1.80;;
23402;SDS011;11874;48.228;11.684;2023-11-18T10:51:16;2.20;;;1.70;;
23402;SDS011;11874;48.228;11.684;2023-11-18T10:53:48;1.63;;;1.40;;
23402;SDS011;11874;48.228;11.684;2023-11-18T10:56:25;1.73;;;1.33;;
23402;SDS011;11874;48.228;11.684;2023-11-18T10:58:56;2.63;;;1.60;;
23402;SDS011;11874;48.228;11.684;2023-11-18T11:01:28;2.20;;;1.27;;
23402;SDS011;11874;48.228;11.684;2023-11-18T11:03:59;1.98;;;1.27;;
23402;SDS011;11874;48.228;11.684;2023-11-18T11:06:32;1.63;;;1.48;;
23402;SDS011;11874;48.228;11.684;2023-11-18T11:09:03;1.48;;;1.38;;
23402;SDS011;11874;48.228;11.684;2023-11-18T11:11:43;1.55;;;1.33;;
23402;SDS011;11874;48.228;11.684;2023-11-18T11:14:15;1.60;;;1.40;;
23402;SDS011;11874;48.228;11.684;2023-11-18T11:16:45;2.17;;;1.10;;
23402;SDS011;11874;48.228;11.684;2023-11-18T11:19:20;2.20;;;1.60;;
23402;SDS011;11874;48.228;11.684;2023-11-18T11:22:00;1.20;;;1.10;;
23402;SDS011;11874;48.228;11.684;2023-11-18T11:24:40;2.92;;;1.30;;
23402;SDS011;11874;48.228;11.684;2023-11-18T11:27:21;2.70;;;1.15;;
23402;SDS011;11874;48.228;11.684;2023-11-18T11:30:03;1.88;;;1.23;;
23402;SDS011;11874;48.228;11.684;2023-11-18T11:32:39;1.50;;;1.13;;
23402;SDS011;11874;48.228;11.684;2023-11-18T11:35:22;1.63;;;1.30;;
23402;SDS011;11874;48.228;11.684;2023-11-18T11:37:53;1.40;;;1.15;;
23402;SDS011;11874;48.228;11.684;2023-11-18T11:40:29;2.53;;;1.02;;
23402;SDS011;11874;48.228;11.684;2023-11-18T11:42:58;3.47;;;1.52;;
23402;SDS011;11874;48.228;11.684;2023-11-18T11:45:31;1.52;;;1.35;;
23402;SDS011;11874;48.228;11.684;2023-11-18T11:48:01;2.10;;;1.33;;
23402;SDS011;11874;48.228;11.684;2023-11-18T11:50:45;1.80;;;1.40;;
23402;SDS011;11874;48.228;11.684;2023-11-18T11:53:25;1.85;;;1.45;;
23402;SDS011;11874;48.228;11.684;2023-11-18T11:55:57;2.55;;;1.67;;
23402;SDS011;11874;48.228;11.684;2023-11-18T11:58:33;1.40;;;1.10;;
23402;SDS011;11874;48.228;11.684;2023-11-18T12:01:14;2.47;;;1.85;;
23402;SDS011;11874;48.228;11.684;2023-11-18T12:03:46;1.73;;;1.23;;
23402;SDS011;11874;48.228;11.684;2023-11-18T12:06:18;2.92;;;1.17;;
23402;SDS011;11874;48.228;11.684;2023-11-18T12:08:52;3.10;;;1.10;;
23402;SDS011;11874;48.228;11.684;2023-11-18T12:11:21;1.23;;;0.90;;
23402;SDS011;11874;48.228;11.684;2023-11-18T12:14:03;1.52;;;1.20;;
23402;SDS011;11874;48.228;11.684;2023-11-18T12:16:58;1.52;;;1.17;;
23402;SDS011;11874;48.228;11.684;2023-11-18T12:19:37;1.30;;;1.10;;
23402;SDS011;11874;48.228;11.684;2023-11-18T12:22:15;1.48;;;1.10;;
23402;SDS011;11874;48.228;11.684;2023-11-18T12:28:08;1.38;;;1.02;;
23402;SDS011;11874;48.228;11.684;2023-11-18T12:30:38;1.85;;;1.20;;
23402;SDS011;11874;48.228;11.684;2023-11-18T12:33:10;2.03;;;1.08;;
23402;SDS011;11874;48.228;11.684;2023-11-18T12:42:10;1.35;;;0.85;;
23402;SDS011;11874;48.228;11.684;2023-11-18T12:48:05;1.15;;;1.00;;
23402;SDS011;11874;48.228;11.684;2023-11-18T12:50:38;2.25;;;1.60;;
23402;SDS011;11874;48.228;11.684;2023-11-18T12:53:07;2.65;;;1.00;;
23402;SDS011;11874;48.228;11.684;2023-11-18T12:55:36;1.27;;;1.17;;
23402;SDS011;11874;48.228;11.684;2023-11-18T12:58:07;1.02;;;0.75;;
23402;SDS011;11874;48.228;11.684;2023-11-18T13:00:39;1.13;;;0.95;;
23402;SDS011;11874;48.228;11.684;2023-11-18T13:03:11;1.10;;;1.00;;
23402;SDS011;11874;48.228;11.684;2023-11-18T13:05:42;1.50;;;0.90;;
23402;SDS011;11874;48.228;11.684;2023-11-18T13:08:12;1.10;;;1.00;;
23402;SDS011;11874;48.228;11.684;2023-11-18T13:10:46;1.85;;;1.02;;
23402;SDS011;11874;48.228;11.684;2023-11-18T13:13:16;1.42;;;0.90;;
23402;SDS011;11874;48.228;11.684;2023-11-18T13:15:46;3.50;;;1.20;;
23402;SDS011;11874;48.228;11.684;2023-11-18T13:18:18;1.25;;;1.15;;
23402;SDS011;11874;48.228;11.684;2023-11-18T13:20:56;4.07;;;1.10;;
23402;SDS011;11874;48.228;11.684;2023-11-18T13:23:25;2.92;;;1.50;;
23402;SDS011;11874;48.228;11.684;2023-11-18T13:25:54;1.38;;;1.08;;
23402;SDS011;11874;48.228;11.684;2023-11-18T13:28:23;2.83;;;1.90;;
23402;SDS011;11874;48.228;11.684;2023-11-18T13:30:52;1.48;;;0.80;;
23402;SDS011;11874;48.228;11.684;2023-11-18T13:33:22;1.23;;;1.00;;
23402;SDS011;11874;48.228;11.684;2023-11-18T13:35:51;0.80;;;0.80;;
23402;SDS011;11874;48.228;11.684;2023-11-18T13:38:19;1.55;;;1.40;;
23402;SDS011;11874;48.228;11.684;2023-11-18T13:40:48;1.52;;;1.20;;
23402;SDS011;11874;48.228;11.684;2023-11-18T13:43:17;2.05;;;1.13;;
23402;SDS011;11874;48.228;11.684;2023-11-18T13:45:50;2.42;;;1.25;;
23402;SDS011;11874;48.228;11.684;2023-11-18T13:48:22;1.88;;;1.08;;
23402;SDS011;11874;48.228;11.684;2023-11-18T13:50:51;1.63;;;1.00;;
23402;SDS011;11874;48.228;11.684;2023-11-18T13:53:22;1.63;;;1.10;;
23402;SDS011;11874;48.228;11.684;2023-11-18T13:55:51;1.75;;;0.80;;
23402;SDS011;11874;48.228;11.684;2023-11-18T13:58:21;1.15;;;0.93;;
23402;SDS011;11874;48.228;11.684;2023-11-18T14:00:49;3.45;;;2.20;;
23402;SDS011;11874;48.228;11.684;2023-11-18T14:03:18;5.55;;;2.42;;
23402;SDS011;11874;48.228;11.684;2023-11-18T14:05:51;4.68;;;2.60;;
23402;SDS011;11874;48.228;11.684;2023-11-18T14:08:21;3.58;;;1.88;;
23402;SDS011;11874;48.228;11.684;2023-11-18T14:10:50;2.15;;;1.17;;
23402;SDS011;11874;48.228;11.684;2023-11-18T14:13:28;2.15;;;1.23;;
23402;SDS011;11874;48.228;11.684;2023-11-18T14:15:57;5.47;;;2.03;;
23402;SDS011;11874;48.228;11.684;2023-11-18T14:18:27;1.65;;;1.00;;
23402;SDS011;11874;48.228;11.684;2023-11-18T14:20:57;2.83;;;0.98;;
23402;SDS011;11874;48.228;11.684;2023-11-18T14:23:27;2.40;;;0.90;;
23402;SDS011;11874;48.228;11.684;2023-11-18T14:25:55;1.08;;;0.90;;
23402;SDS011;11874;48.228;11.684;2023-11-18T14:28:23;1.52;;;1.08;;
23402;SDS011;11874;48.228;11.684;2023-11-18T14:30:52;1.58;;;1.30;;
23402;SDS011;11874;48.228;11.684;2023-11-18T14:33:23;0.93;;;0.85;;
23402;SDS011;11874;48.228;11.684;2023-11-18T14:35:51;2.85;;;1.20;;
23402;SDS011;11874;48.228;11.684;2023-11-18T14:38:21;2.05;;;1.13;;
23402;SDS011;11874;48.228;11.684;2023-11-18T14:40:50;3.42;;;1.23;;
23402;SDS011;11874;48.228;11.684;2023-11-18T14:43:19;1.67;;;1.10;;
23402;SDS011;11874;48.228;11.684;2023-11-18T14:45:48;3.00;;;1.00;;
23402;SDS011;11874;48.228;11.684;2023-11-18T14:48:16;1.98;;;0.93;;
23402;SDS011;11874;48.228;11.684;2023-11-18T14:50:44;1.20;;;1.10;;
23402;SDS011;11874;48.228;11.684;2023-11-18T14:53:12;1.67;;;1.30;;
23402;SDS011;11874;48.228;11.684;2023-11-18T14:55:42;1.45;;;1.27;;
23402;SDS011;11874;48.228;11.684;2023-11-18T14:58:10;1.80;;;1.40;;
23402;SDS011;11874;48.228;11.684;2023-11-18T15:00:39;3.15;;;1.90;;
23402;SDS011;11874;48.228;11.684;2023-11-18T15:03:08;2.67;;;2.15;;
23402;SDS011;11874;48.228;11.684;2023-11-18T15:05:38;2.95;;;1.98;;
23402;SDS011;11874;48.228;11.684;2023-11-18T15:08:06;2.05;;;1.80;;
23402;SDS011;11874;48.228;11.684;2023-11-18T15:10:39;2.00;;;1.70;;
23402;SDS011;11874;48.228;11.684;2023-11-18T15:13:10;2.67;;;2.13;;
23402;SDS011;11874;48.228;11.684;2023-11-18T15:15:42;2.67;;;2.10;;
23402;SDS011;11874;48.228;11.684;2023-11-18T15:18:14;2.05;;;1.70;;
23402;SDS011;11874;48.228;11.684;2023-11-18T15:20:45;2.70;;;1.73;;